Time;durP1;ratioP1;P1;durP2;ratioP2;P2;SDS_P1;SDS_P2;PMS_P1;PMS_P2;Temp;Humidity;BMP_temperature;BMP_pressure;BME280_temperature;BME280_humidity;BME280_pressure;Samples;Min_cycle;Max_cycle;Signal;HPM_P1;HPM_P2
2023/07/18 00:01:23;;;;;;;7.32;3.40;;;17.20;84.50;;;18.10;59.92;101130.47;4957114;28;20126;-85
2023/07/18 00:03:51;;;;;;;9.52;3.70;;;17.10;84.50;;;18.08;60.01;101121.00;4957064;28;20047;-84
2023/07/18 00:06:18;;;;;;;8.07;3.50;;;17.10;84.30;;;18.08;60.00;101126.41;4955600;28;20484;-85
2023/07/18 00:08:45;;;;;;;7.60;3.55;;;17.10;84.50;;;18.06;60.01;101131.22;4956902;28;20126;-85
2023/07/18 00:11:14;;;;;;;6.90;3.67;;;17.10;84.40;;;18.06;59.71;101125.84;4956647;28;20122;-85
2023/07/18 00:13:42;;;;;;;6.30;2.97;;;17.10;84.30;;;18.06;59.76;101123.13;4971868;28;20079;-85
2023/07/18 00:16:09;;;;;;;6.15;3.47;;;17.10;84.30;;;18.04;59.70;101122.53;4956809;28;20059;-85
2023/07/18 00:18:37;;;;;;;6.20;3.28;;;17.10;84.10;;;18.02;59.66;101120.91;4971102;28;20094;-85
2023/07/18 00:21:05;;;;;;;5.57;3.10;;;17.00;83.90;;;18.00;59.61;101117.63;4956785;28;20046;-85
2023/07/18 00:23:32;;;;;;;6.32;3.10;;;17.00;84.10;;;17.96;59.72;101119.19;4971087;28;20055;-85
2023/07/18 00:25:59;;;;;;;5.28;3.20;;;16.90;84.10;;;17.94;59.80;101124.00;4956264;28;20055;-85
2023/07/18 00:28:29;;;;;;;7.32;3.00;;;17.00;84.10;;;17.91;59.58;101126.38;4954660;28;20075;-85
2023/07/18 00:30:56;;;;;;;8.38;3.38;;;16.90;84.10;;;17.89;59.68;101129.31;4954962;28;20050;-85
2023/07/18 00:33:24;;;;;;;9.07;3.35;;;16.90;84.20;;;17.87;59.62;101133.34;4970916;28;20051;-85
2023/07/18 00:35:51;;;;;;;7.70;3.25;;;16.90;84.20;;;17.85;59.68;101130.84;4939236;29;20051;-85
2023/07/18 00:38:20;;;;;;;7.03;3.03;;;16.80;84.10;;;17.84;59.82;101123.00;4954740;28;20098;-85
2023/07/18 00:40:48;;;;;;;5.80;2.90;;;16.80;84.20;;;17.84;59.72;101114.91;4954808;28;20039;-85
2023/07/18 00:43:16;;;;;;;9.35;3.50;;;16.90;84.50;;;17.84;59.98;101123.00;4970874;28;20065;-85
2023/07/18 00:45:50;;;;;;;6.85;3.58;;;16.90;84.50;;;17.82;59.80;101120.56;4955254;28;20043;-85
2023/07/18 00:48:18;;;;;;;7.20;3.05;;;16.80;84.40;;;17.79;59.88;101118.34;4970811;28;20145;-85
2023/07/18 00:50:46;;;;;;;6.63;3.33;;;16.80;84.50;;;17.79;59.78;101122.94;4954533;29;20043;-84
2023/07/18 00:53:14;;;;;;;5.90;3.15;;;16.80;84.40;;;17.77;59.62;101123.19;4970927;28;20149;-85
2023/07/18 00:55:42;;;;;;;8.55;3.45;;;16.80;84.40;;;17.76;59.81;101126.91;4956080;28;20133;-85
2023/07/18 00:58:09;;;;;;;8.63;3.30;;;16.80;84.40;;;17.74;59.88;101119.06;4970402;28;20082;-84
2023/07/18 01:00:38;;;;;;;6.60;3.25;;;16.80;84.40;;;17.74;59.79;101127.16;4970467;28;20122;-85
2023/07/18 01:03:06;;;;;;;8.15;3.20;;;16.80;84.50;;;17.73;59.74;101122.84;4953594;28;20051;-84
2023/07/18 01:05:34;;;;;;;8.07;2.97;;;16.80;84.30;;;17.73;59.83;101122.03;4938949;28;20070;-85
2023/07/18 01:08:03;;;;;;;6.88;2.90;;;16.80;84.30;;;17.72;59.69;101112.28;4970306;28;20130;-85
2023/07/18 01:10:30;;;;;;;5.95;2.78;;;16.80;84.30;;;17.71;59.85;101121.41;4950696;28;20042;-85
2023/07/18 01:12:59;;;;;;;7.13;3.30;;;16.70;84.40;;;17.68;60.07;101114.63;4950874;28;20071;-85
2023/07/18 01:15:27;;;;;;;7.18;3.15;;;16.70;84.30;;;17.66;59.83;101119.41;4951025;28;20110;-85
2023/07/18 01:17:54;;;;;;;6.57;3.10;;;16.70;84.50;;;17.65;59.99;101115.09;4950670;28;20043;-85
2023/07/18 01:20:27;;;;;;;6.57;3.40;;;16.70;84.50;;;17.63;60.00;101111.84;4950609;28;20075;-85
2023/07/18 01:22:58;;;;;;;9.15;3.63;;;16.70;84.40;;;17.63;59.97;101111.03;4934938;29;20083;-85
2023/07/18 01:25:36;;;;;;;6.70;3.38;;;16.70;84.60;;;17.62;60.19;101109.38;5109983;27;20388;-85
2023/07/18 01:28:06;;;;;;;6.00;3.50;;;16.70;84.70;;;17.61;60.11;101110.44;5088607;28;20420;-84
2023/07/18 01:30:33;;;;;;;8.82;3.40;;;16.60;84.50;;;17.60;59.81;101104.22;5085014;28;20044;-84
2023/07/18 01:33:01;;;;;;;5.80;3.28;;;16.60;84.30;;;17.60;59.92;101106.09;5067844;28;20485;-85
2023/07/18 01:35:29;;;;;;;6.75;3.33;;;16.60;84.50;;;17.58;60.16;101102.84;5068997;28;20045;-85
2023/07/18 01:37:58;;;;;;;7.68;3.30;;;16.60;84.70;;;17.57;60.06;101101.16;5068781;28;20047;-85
2023/07/18 01:40:25;;;;;;;8.57;3.15;;;16.60;84.60;;;17.56;60.04;101099.53;5067357;28;20051;-84
2023/07/18 01:42:57;;;;;;;10.00;3.28;;;16.60;84.60;;;17.54;60.09;101102.50;5067548;28;20037;-84
2023/07/18 01:45:27;;;;;;;7.75;3.55;;;16.60;84.60;;;17.54;59.66;101107.06;5067398;28;20040;-84
2023/07/18 01:47:56;;;;;;;9.68;3.67;;;16.60;84.50;;;17.51;60.03;101101.09;5067279;28;20052;-85
2023/07/18 01:50:23;;;;;;;8.57;3.50;;;16.60;84.50;;;17.50;60.30;101101.34;5068469;28;20112;-84
2023/07/18 01:52:51;;;;;;;6.13;3.40;;;16.60;84.60;;;17.49;60.13;101100.53;5067349;28;20072;-85
2023/07/18 01:55:20;;;;;;;8.45;3.92;;;16.60;84.60;;;17.49;60.11;101099.69;5084077;28;20045;-85
2023/07/18 01:57:50;;;;;;;8.23;3.10;;;16.60;84.70;;;17.48;60.17;101098.06;5084068;28;20087;-85
2023/07/18 02:00:20;;;;;;;9.13;3.35;;;16.60;84.70;;;17.45;60.22;101093.97;5066815;28;20505;-85
2023/07/18 02:02:50;;;;;;;7.78;3.08;;;16.50;84.90;;;17.45;60.23;101083.19;5068911;28;20045;-85
2023/07/18 02:05:20;;;;;;;8.07;3.30;;;16.50;84.80;;;17.45;60.17;101088.56;5067051;28;20080;-85
2023/07/18 02:07:48;;;;;;;7.05;3.33;;;16.50;84.80;;;17.42;60.07;101083.69;5068594;28;20116;-85
2023/07/18 02:10:16;;;;;;;7.05;3.63;;;16.50;84.70;;;17.40;60.15;101083.09;5083690;28;20053;-85
2023/07/18 02:12:44;;;;;;;7.25;3.35;;;16.50;84.90;;;17.39;60.16;101088.72;5083979;28;20073;-85
2023/07/18 02:15:13;;;;;;;6.60;2.90;;;16.50;84.80;;;17.37;60.33;101088.13;5066809;28;20466;-85
2023/07/18 02:17:43;;;;;;;6.32;2.80;;;16.40;84.80;;;17.34;60.21;101086.75;5083805;28;20516;-85
2023/07/18 02:20:13;;;;;;;8.02;3.50;;;16.40;84.80;;;17.31;60.35;101081.81;5067770;28;20076;-85
2023/07/18 02:22:43;;;;;;;7.38;3.15;;;16.40;84.80;;;17.29;60.03;101089.34;5083922;28;20412;-85
2023/07/18 02:25:11;;;;;;;6.45;2.83;;;16.30;84.80;;;17.27;60.12;101080.66;5066390;28;20515;-85
2023/07/18 02:27:41;;;;;;;7.18;3.15;;;16.30;84.90;;;17.27;60.04;101079.84;5066705;28;20078;-85
2023/07/18 02:30:10;;;;;;;7.28;3.10;;;16.30;84.90;;;17.24;60.22;101075.78;5050019;28;20083;-85
2023/07/18 02:32:37;;;;;;;6.80;2.70;;;16.30;85.00;;;17.24;60.18;101076.59;5066527;28;20047;-85
2023/07/18 02:35:10;;;;;;;5.90;3.13;;;16.30;85.00;;;17.23;60.24;101072.25;5064329;28;20417;-85
2023/07/18 02:37:38;;;;;;;6.20;3.17;;;16.30;84.90;;;17.23;60.20;101074.97;5053429;28;20140;-85
2023/07/18 02:40:09;;;;;;;7.90;2.90;;;16.30;85.10;;;17.22;60.26;101059.81;5052937;28;20076;-85
2023/07/18 02:42:37;;;;;;;5.63;2.67;;;16.40;85.20;;;17.18;60.48;101061.38;5069920;28;20060;-85
2023/07/18 02:45:06;;;;;;;8.02;3.10;;;16.20;85.20;;;17.18;60.72;101063.28;5054269;28;20136;-85
2023/07/18 02:47:33;;;;;;;7.20;3.20;;;16.20;85.40;;;17.17;60.69;101053.53;5069897;28;20098;-85
2023/07/18 02:50:01;;;;;;;6.72;2.78;;;16.20;85.40;;;17.15;60.61;101055.66;5052680;28;20139;-85
2023/07/18 02:52:29;;;;;;;5.15;2.45;;;16.20;85.50;;;17.14;60.75;101057.53;5052928;28;20520;-85
2023/07/18 02:54:57;;;;;;;8.23;2.83;;;16.20;85.50;;;17.12;60.71;101061.50;5069758;28;20102;-85
2023/07/18 02:57:24;;;;;;;8.35;3.35;;;16.20;85.40;;;17.12;60.87;101058.81;5052837;28;20073;-85
2023/07/18 02:59:51;;;;;;;5.78;2.67;;;16.20;85.50;;;17.11;60.97;101055.31;5052557;28;20049;-85
2023/07/18 03:02:20;;;;;;;6.47;2.90;;;16.20;85.70;;;17.10;60.75;101061.75;5052464;28;20102;-85
2023/07/18 03:04:48;;;;;;;5.97;2.72;;;16.20;85.60;;;17.09;60.83;101068.22;5052326;28;20905;-85
2023/07/18 03:07:17;;;;;;;5.68;2.70;;;16.20;85.60;;;17.07;61.05;101056.84;5053952;28;20132;-85
2023/07/18 03:09:46;;;;;;;5.07;2.72;;;16.20;85.80;;;17.09;61.17;101062.00;5034656;28;20041;-84
2023/07/18 03:12:14;;;;;;;6.82;3.08;;;16.20;85.90;;;17.10;61.42;101058.25;5048938;28;20556;-85
2023/07/18 03:14:41;;;;;;;4.88;3.05;;;16.20;86.00;;;17.10;61.39;101067.16;5032454;28;20069;-85
2023/07/18 03:17:09;;;;;;;5.35;2.72;;;16.20;86.00;;;17.10;61.21;101059.06;5032724;28;20071;-85
2023/07/18 03:19:36;;;;;;;5.07;2.72;;;16.20;86.10;;;17.11;61.60;101055.31;5032271;28;20041;-85
2023/07/18 03:22:04;;;;;;;6.88;3.50;;;16.30;86.30;;;17.12;61.49;101062.31;5032529;28;20695;-85
2023/07/18 03:24:35;;;;;;;11.20;3.63;;;16.30;86.20;;;17.11;61.63;101060.69;5048888;28;20548;-85
2023/07/18 03:27:04;;;;;;;6.40;3.17;;;16.30;86.30;;;17.10;61.49;101053.66;5032500;28;20050;-85
2023/07/18 03:29:32;;;;;;;7.57;3.08;;;16.20;86.20;;;17.13;61.66;101055.06;5032049;28;20056;-85
2023/07/18 03:32:00;;;;;;;7.03;3.40;;;16.30;86.30;;;17.11;61.37;101054.50;5033663;28;20038;-85
2023/07/18 03:34:28;;;;;;;8.30;3.25;;;16.30;86.20;;;17.11;61.50;101052.59;5032188;28;20045;-85
2023/07/18 03:36:56;;;;;;;7.57;3.17;;;16.30;86.10;;;17.11;61.63;101051.78;5032033;28;20056;-85
2023/07/18 03:39:23;;;;;;;6.70;3.10;;;16.30;86.30;;;17.10;61.33;101050.97;5031878;28;20076;-85
2023/07/18 03:41:50;;;;;;;9.02;3.60;;;16.30;86.00;;;17.11;61.51;101059.88;5033241;28;20124;-85
2023/07/18 03:44:19;;;;;;;7.15;3.15;;;16.30;86.30;;;17.10;61.42;101055.56;5033052;28;20107;-85
2023/07/18 03:46:46;;;;;;;6.90;3.97;;;16.30;86.20;;;17.10;61.40;101055.56;5032798;28;20045;-85
2023/07/18 03:49:13;;;;;;;7.93;3.33;;;16.30;86.30;;;17.09;61.52;101060.13;5033719;28;20041;-84
2023/07/18 03:51:41;;;;;;;8.68;3.72;;;16.30;86.30;;;17.08;61.63;101057.66;5038690;28;20124;-84
2023/07/18 03:54:08;;;;;;;9.05;3.83;;;16.30;86.40;;;17.08;61.61;101054.97;5037409;28;20063;-84
2023/07/18 03:56:35;;;;;;;5.20;3.05;;;16.20;86.30;;;17.07;61.87;101053.31;5039226;28;20069;-84
2023/07/18 03:59:03;;;;;;;7.55;3.38;;;16.20;86.40;;;17.08;62.00;101055.81;5036774;28;20096;-84
2023/07/18 04:01:32;;;;;;;8.20;3.13;;;16.30;86.70;;;17.09;62.02;101048.53;5034500;28;20044;-84
2023/07/18 04:03:59;;;;;;;6.95;3.40;;;16.30;86.70;;;17.08;61.99;101049.56;5044105;28;20051;-85
2023/07/18 04:06:26;;;;;;;6.20;3.38;;;16.30;86.80;;;17.07;62.22;101053.31;5053498;28;20517;-84
2023/07/18 04:08:53;;;;;;;7.45;3.70;;;16.30;86.90;;;17.07;62.17;101054.13;5069159;28;20051;-85
2023/07/18 04:11:21;;;;;;;6.43;3.35;;;16.20;86.70;;;17.07;62.13;101047.94;5068677;28;20572;-84
2023/07/18 04:13:48;;;;;;;11.05;3.70;;;16.30;86.90;;;17.07;62.07;101045.25;5052069;28;20049;-85
2023/07/18 04:16:15;;;;;;;5.18;3.30;;;16.30;86.90;;;17.08;62.33;101044.19;5068439;28;20130;-85
2023/07/18 04:18:44;;;;;;;8.80;3.03;;;16.30;87.10;;;17.06;62.43;101041.72;5050988;28;20067;-85
2023/07/18 04:21:15;;;;;;;6.80;3.42;;;16.30;87.00;;;17.08;62.57;101033.41;5053216;28;20079;-84
2023/07/18 04:23:42;;;;;;;6.72;3.45;;;16.30;87.10;;;17.09;62.51;101038.56;5051713;28;20135;-85
2023/07/18 04:26:12;;;;;;;6.78;3.35;;;16.30;87.10;;;17.11;62.44;101038.31;5052117;28;20492;-84
2023/07/18 04:28:40;;;;;;;6.85;3.20;;;16.30;87.10;;;17.11;62.78;101033.75;5051632;28;20714;-85
2023/07/18 04:31:07;;;;;;;7.38;3.20;;;16.40;87.30;;;17.13;62.67;101041.56;5051328;28;20055;-84
2023/07/18 04:33:36;;;;;;;8.20;3.20;;;16.40;87.30;;;17.15;62.82;101045.69;5068326;28;20041;-85
2023/07/18 04:36:07;;;;;;;5.13;3.05;;;16.40;87.30;;;17.16;63.02;101047.31;5051750;28;20079;-85
2023/07/18 04:38:39;;;;;;;7.50;3.50;;;16.40;87.40;;;17.17;62.97;101038.16;5067996;28;20140;-85
2023/07/18 04:41:06;;;;;;;5.65;3.15;;;16.50;87.70;;;17.19;63.02;101043.34;5052729;28;20561;-84
2023/07/18 04:43:34;;;;;;;8.05;3.05;;;16.50;88.00;;;17.19;63.39;101043.34;5051681;28;20044;-84
2023/07/18 04:46:01;;;;;;;9.00;3.30;;;16.50;87.90;;;17.26;63.53;101041.28;5051266;28;20144;-85
2023/07/18 04:48:28;;;;;;;7.10;2.92;;;16.60;88.10;;;17.42;63.17;101040.53;5051584;28;20041;-84
2023/07/18 04:50:59;;;;;;;9.70;3.22;;;16.70;87.60;;;17.60;63.25;101036.78;5052545;28;20045;-85
2023/07/18 04:53:29;;;;;;;9.05;3.25;;;16.90;87.30;;;17.77;62.87;101041.41;5051298;28;20688;-84
2023/07/18 04:55:57;;;;;;;9.95;3.58;;;17.10;87.00;;;17.91;62.45;101031.91;5052889;28;20127;-84
2023/07/18 04:58:25;;;;;;;10.32;3.78;;;17.20;86.30;;;18.04;61.85;101038.88;5050815;28;20056;-85
2023/07/18 05:00:54;;;;;;;6.57;2.90;;;17.30;85.60;;;18.08;61.07;101043.53;5052251;28;20090;-85
2023/07/18 05:03:22;;;;;;;9.32;3.72;;;17.40;84.70;;;17.94;61.65;101040.34;5051416;28;20045;-85
2023/07/18 05:05:49;;;;;;;10.65;3.30;;;17.30;85.20;;;17.94;61.90;101028.72;5067786;28;20080;-85
2023/07/18 05:08:17;;;;;;;8.55;3.35;;;17.30;85.80;;;18.08;62.09;101035.44;5050883;28;20037;-85
2023/07/18 05:10:46;;;;;;;7.50;4.15;;;17.40;85.70;;;18.23;61.52;101024.84;5050656;28;20454;-85
2023/07/18 05:13:13;;;;;;;10.10;3.83;;;17.60;85.00;;;18.37;60.78;101028.00;5051625;28;20043;-85
2023/07/18 05:15:42;;;;;;;8.80;3.67;;;17.80;84.10;;;18.49;60.17;101025.19;5046579;28;20116;-85
2023/07/18 05:18:10;;;;;;;12.50;4.15;;;18.00;83.40;;;18.60;60.03;101021.56;5031741;28;20120;-84
2023/07/18 05:20:37;;;;;;;7.55;3.67;;;18.10;83.10;;;18.69;59.98;101028.22;5031722;28;20049;-85
2023/07/18 05:23:05;;;;;;;9.40;3.75;;;18.30;82.70;;;18.75;59.21;101029.09;5030603;28;20136;-85
2023/07/18 05:25:33;;;;;;;10.95;3.78;;;18.40;81.70;;;18.83;59.52;101027.81;5031989;28;20455;-85
2023/07/18 05:28:01;;;;;;;11.52;3.85;;;18.50;81.60;;;18.92;59.37;101029.81;5031524;28;20044;-85
2023/07/18 05:30:29;;;;;;;8.45;3.63;;;18.60;81.30;;;19.04;59.55;101029.69;5030068;28;20136;-85
2023/07/18 05:32:56;;;;;;;8.00;3.33;;;18.80;81.40;;;19.12;58.56;101023.81;5030375;28;20414;-85
2023/07/18 05:35:24;;;;;;;12.90;4.30;;;18.90;80.20;;;19.22;58.53;101028.50;5030268;28;20132;-84
2023/07/18 05:37:51;;;;;;;9.20;3.53;;;19.00;80.20;;;19.33;58.20;101024.03;5030291;28;20140;-85
2023/07/18 05:40:19;;;;;;;10.70;3.85;;;19.20;79.70;;;19.40;58.23;101024.63;5029915;28;20590;-85
2023/07/18 05:42:46;;;;;;;9.05;3.90;;;19.30;79.30;;;19.41;57.26;101028.97;5031450;28;20580;-85
2023/07/18 05:45:15;;;;;;;8.27;3.58;;;19.30;78.00;;;19.51;57.43;101029.06;5030089;28;20073;-85
2023/07/18 05:47:43;;;;;;;7.93;3.65;;;19.40;78.50;;;19.56;57.21;101031.81;5046772;28;20114;-85
2023/07/18 05:50:11;;;;;;;11.68;3.58;;;19.50;77.70;;;19.64;57.66;101023.25;5031143;28;20045;-85
2023/07/18 05:52:39;;;;;;;7.63;3.63;;;19.60;78.20;;;19.74;56.75;101022.53;5030413;28;20037;-85
2023/07/18 05:55:08;;;;;;;8.77;3.58;;;19.70;77.20;;;19.79;57.34;101026.09;5063563;28;20050;-85
2023/07/18 05:57:36;;;;;;;8.43;3.65;;;19.80;78.00;;;19.88;56.86;101025.63;5036586;28;20087;-85
2023/07/18 06:00:06;;;;;;;8.98;3.65;;;19.90;77.20;;;19.96;56.90;101034.09;5066492;28;20417;-85
2023/07/18 06:02:40;;;;;;;8.75;3.55;;;20.00;77.10;;;20.05;56.22;101034.41;5051732;28;20052;-85
2023/07/18 06:05:09;;;;;;;7.50;3.20;;;20.00;76.30;;;20.13;55.92;101030.41;5051174;28;20051;-85
2023/07/18 06:07:37;;;;;;;10.68;3.30;;;20.10;76.00;;;20.17;55.79;101031.50;5049947;28;20072;-85
2023/07/18 06:10:05;;;;;;;9.52;3.50;;;20.20;75.80;;;20.22;55.87;101035.06;5049304;28;20044;-85
2023/07/18 06:12:32;;;;;;;7.82;3.15;;;20.30;75.80;;;20.20;55.12;101041.81;5054714;28;20133;-85
2023/07/18 06:15:00;;;;;;;7.00;3.30;;;20.30;74.70;;;20.21;54.34;101040.75;5054943;28;20067;-85
2023/07/18 06:17:27;;;;;;;8.02;3.13;;;20.30;73.90;;;20.26;55.20;101036.19;5070196;28;20132;-85
2023/07/18 06:19:56;;;;;;;6.90;3.17;;;20.40;74.50;;;20.36;54.92;101045.44;5054354;28;20499;-85
2023/07/18 06:22:24;;;;;;;6.63;2.97;;;20.50;74.20;;;20.40;55.00;101036.53;5053304;28;20059;-84
2023/07/18 06:24:51;;;;;;;9.35;3.25;;;20.60;74.30;;;20.45;54.93;101039.28;5053096;28;20056;-85
2023/07/18 06:27:19;;;;;;;7.07;3.13;;;20.60;73.90;;;20.53;54.97;101041.50;5053523;28;20477;-85
2023/07/18 06:29:46;;;;;;;10.35;3.40;;;20.70;74.10;;;20.53;54.83;101036.06;5054743;28;20064;-85
2023/07/18 06:32:14;;;;;;;9.93;3.00;;;20.70;73.50;;;20.56;53.86;101035.56;5053660;28;20713;-85
2023/07/18 06:34:43;;;;;;;6.82;2.60;;;20.80;72.70;;;20.64;53.91;101036.13;5036730;28;20041;-85
2023/07/18 06:37:12;;;;;;;6.90;2.92;;;20.80;72.50;;;20.71;54.52;101042.13;5054590;28;20128;-85
2023/07/18 06:39:39;;;;;;;8.32;2.55;;;20.90;72.90;;;20.69;53.70;101038.84;5054301;28;20047;-85
2023/07/18 06:42:09;;;;;;;8.13;2.83;;;20.90;71.90;;;20.74;53.55;101036.16;5054290;28;20570;-85
2023/07/18 06:44:36;;;;;;;7.10;3.15;;;21.00;72.10;;;20.78;54.17;101039.97;5052959;28;20041;-85
2023/07/18 06:47:04;;;;;;;7.28;2.80;;;21.00;72.30;;;20.82;53.76;101032.94;5053061;28;20048;-85
2023/07/18 06:49:31;;;;;;;8.27;2.90;;;21.10;71.70;;;20.87;53.62;101035.66;5053984;28;20099;-85
2023/07/18 06:51:59;;;;;;;10.27;2.97;;;21.20;71.90;;;20.93;53.90;101034.59;5053074;28;20107;-85
2023/07/18 06:54:28;;;;;;;6.65;2.70;;;21.20;71.80;;;20.97;52.97;101034.88;5054317;28;20120;-85
2023/07/18 06:56:55;;;;;;;8.13;2.97;;;21.30;70.70;;;20.99;52.13;101035.47;5054173;28;20045;-85
2023/07/18 06:59:24;;;;;;;7.10;2.40;;;21.30;69.90;;;21.05;51.99;101029.78;5053710;28;20045;-85
2023/07/18 07:01:51;;;;;;;6.25;2.30;;;21.40;69.70;;;21.09;52.12;101033.59;5053882;28;20044;-85
2023/07/18 07:04:19;;;;;;;7.05;3.00;;;21.40;69.60;;;21.14;52.08;101029.25;5054159;28;20077;-85
2023/07/18 07:06:47;;;;;;;10.18;2.78;;;21.40;69.30;;;21.17;52.67;101028.69;5052625;28;20437;-85
2023/07/18 07:09:14;;;;;;;8.23;2.60;;;21.50;70.10;;;21.18;52.67;101014.91;5053550;28;20555;-85
2023/07/18 07:11:44;;;;;;;5.75;2.63;;;21.50;70.10;;;21.19;51.64;101030.09;5053808;28;20120;-85
2023/07/18 07:14:12;;;;;;;7.13;2.55;;;21.50;68.90;;;21.24;50.57;101018.44;5069429;28;20057;-85
2023/07/18 07:16:39;;;;;;;7.85;2.88;;;21.50;68.00;;;21.32;52.34;101020.63;5052626;28;20552;-85
2023/07/18 07:19:06;;;;;;;9.27;2.78;;;21.60;69.90;;;21.39;51.78;101023.91;5052214;28;20051;-85
2023/07/18 07:21:34;;;;;;;6.68;2.55;;;21.70;69.30;;;21.46;51.76;101023.63;5052717;28;20125;-85
2023/07/18 07:24:02;;;;;;;8.20;3.05;;;21.70;69.20;;;21.48;51.60;101025.00;5053428;28;20417;-85
2023/07/18 07:26:29;;;;;;;6.82;2.55;;;21.70;69.00;;;21.49;52.01;101021.19;5053395;28;20041;-85
2023/07/18 07:28:59;;;;;;;8.60;2.70;;;21.80;69.40;;;21.51;52.21;101026.34;5053396;28;20049;-85
2023/07/18 07:31:26;;;;;;;6.78;2.60;;;21.80;69.10;;;21.50;52.12;101022.81;5053423;28;20771;-85
2023/07/18 07:33:54;;;;;;;12.18;3.15;;;21.80;69.60;;;21.56;52.07;101018.19;5053411;28;20472;-85
2023/07/18 07:36:21;;;;;;;6.00;2.50;;;21.80;69.40;;;21.57;51.75;101011.72;5052167;28;20585;-85
2023/07/18 07:38:48;;;;;;;8.88;2.80;;;21.80;68.90;;;21.62;51.78;101013.59;5053084;28;20628;-85
2023/07/18 07:41:16;;;;;;;6.78;2.22;;;21.80;69.20;;;21.59;51.67;101012.25;5052118;28;20476;-85
2023/07/18 07:43:43;;;;;;;9.07;2.83;;;21.90;69.00;;;21.56;51.98;101013.59;5051943;28;20043;-85
2023/07/18 07:46:12;;;;;;;6.22;2.63;;;21.80;68.90;;;21.60;51.66;101011.97;5053350;28;20149;-85
2023/07/18 07:48:40;;;;;;;10.90;2.55;;;21.90;68.90;;;21.60;51.44;101013.88;5053186;28;20131;-86
2023/07/18 07:51:07;;;;;;;13.90;2.80;;;21.90;68.00;;;21.63;52.70;101016.03;5053184;28;20044;-86
2023/07/18 07:53:35;;;;;;;11.73;2.30;;;21.90;69.70;;;21.71;50.96;101012.78;5053115;28;20490;-84
2023/07/18 07:56:02;;;;;;;5.63;1.92;;;22.00;67.70;;;21.67;51.53;101009.00;5053196;28;20111;-85
2023/07/18 07:58:30;;;;;;;12.43;2.47;;;22.00;68.40;;;21.77;50.54;101005.47;5053030;28;20045;-85
2023/07/18 08:00:57;;;;;;;7.50;2.50;;;22.00;67.70;;;21.83;50.82;100997.03;5051988;28;20401;-85
2023/07/18 08:03:25;;;;;;;6.03;2.15;;;22.10;67.50;;;21.89;49.63;100997.81;5052841;28;20047;-85
2023/07/18 08:05:53;;;;;;;9.75;2.42;;;22.10;66.30;;;21.92;48.96;101002.72;5052835;28;20560;-85
2023/07/18 08:08:20;;;;;;;6.10;2.38;;;22.20;65.90;;;21.85;50.01;100997.56;5051394;28;20048;-85
2023/07/18 08:10:47;;;;;;;5.80;2.13;;;22.10;66.60;;;;;;5051437;28;20550;-85
2023/07/18 08:13:17;;;;;;;6.50;2.05;;;22.20;66.60;;;21.92;49.15;100988.34;5051539;28;20107;-86
2023/07/18 08:15:44;;;;;;;7.85;2.00;;;22.20;65.60;;;21.94;48.75;100986.97;5051789;28;20106;-85
2023/07/18 08:18:12;;;;;;;8.25;1.90;;;22.20;65.00;;;21.98;49.01;100981.78;5052565;28;20207;-85
2023/07/18 08:20:40;;;;;;;5.63;1.55;;;22.20;65.20;;;22.00;48.48;100982.31;5051365;28;20552;-85
2023/07/18 08:23:08;;;;;;;7.82;1.88;;;22.30;64.60;;;22.09;49.46;100986.91;5052733;28;20068;-85
2023/07/18 08:25:35;;;;;;;7.20;1.90;;;22.30;65.60;;;22.14;49.47;100988.03;5052720;28;20044;-84
2023/07/18 08:28:02;;;;;;;5.13;2.00;;;22.40;65.40;;;22.14;48.95;100988.03;5051355;28;20041;-85
2023/07/18 08:30:30;;;;;;;6.95;2.00;;;22.40;64.80;;;22.13;48.34;100976.34;5051616;28;20147;-85
2023/07/18 08:32:57;;;;;;;4.78;1.52;;;22.40;64.40;;;22.16;49.32;100975.81;5070953;28;20112;-84
2023/07/18 08:35:25;;;;;;;5.55;1.67;;;22.40;65.10;;;22.23;48.80;100978.22;5075910;28;20021;-84
2023/07/18 08:37:54;;;;;;;9.15;2.25;;;22.50;64.40;;;22.24;49.00;100983.38;5079156;28;20017;-85
2023/07/18 08:40:21;;;;;;;6.70;2.30;;;22.50;64.80;;;22.31;49.07;100974.94;5077584;28;20076;-84
2023/07/18 08:42:49;;;;;;;5.53;1.90;;;22.60;65.00;;;22.33;48.64;100970.03;5077210;28;20028;-84
2023/07/18 08:45:17;;;;;;;8.55;2.00;;;22.70;64.40;;;22.36;48.08;100969.50;5060413;28;20079;-85
2023/07/18 08:47:45;;;;;;;7.10;1.95;;;22.70;63.20;;;22.30;46.83;100967.88;5055074;28;20068;-85
2023/07/18 08:50:13;;;;;;;8.05;1.88;;;22.70;61.90;;;22.35;48.29;100956.97;5053161;28;20037;-84
2023/07/18 08:52:41;;;;;;;6.32;1.52;;;22.60;63.40;;;22.41;46.69;100964.03;5051880;28;20417;-85
2023/07/18 08:55:11;;;;;;;4.82;1.95;;;22.70;61.70;;;22.42;46.81;100962.94;5051837;28;20049;-85
2023/07/18 08:57:41;;;;;;;5.82;1.80;;;22.80;62.00;;;22.45;47.26;100956.13;5051360;28;20033;-85
2023/07/18 09:00:11;;;;;;;6.45;1.85;;;22.80;62.70;;;22.38;44.90;100950.19;5051893;28;20049;-85
2023/07/18 09:02:39;;;;;;;4.93;1.80;;;22.70;59.40;;;22.33;45.67;100959.16;5050921;28;20148;-85
2023/07/18 09:05:08;;;;;;;6.38;1.50;;;22.60;60.50;;;22.32;46.57;100950.19;5052430;28;20484;-85
2023/07/18 09:07:37;;;;;;;5.32;1.65;;;22.60;61.50;;;22.38;45.90;100945.56;5051958;28;20063;-85
2023/07/18 09:10:05;;;;;;;3.67;1.50;;;22.60;61.00;;;22.42;46.08;100943.09;5049624;28;20477;-85
2023/07/18 09:12:36;;;;;;;7.70;1.90;;;22.80;61.20;;;22.52;47.33;100937.63;5030792;28;20052;-85
2023/07/18 09:15:05;;;;;;;7.43;1.77;;;22.90;62.60;;;22.51;46.72;100939.53;5032332;28;20049;-85
2023/07/18 09:17:35;;;;;;;7.05;1.92;;;22.90;61.50;;;22.55;46.07;100935.16;5030787;28;20041;-84
2023/07/18 09:20:08;;;;;;;3.97;1.30;;;22.90;60.50;;;22.56;44.92;100925.91;5030581;28;20057;-84
2023/07/18 09:22:38;;;;;;;4.63;1.40;;;22.90;59.10;;;22.54;43.22;100917.19;5031827;28;20037;-86
2023/07/18 09:25:07;;;;;;;4.18;1.50;;;22.90;57.10;;;22.57;46.33;100924.81;5031684;28;20049;-85
2023/07/18 09:27:37;;;;;;;6.97;1.85;;;22.90;60.60;;;22.63;45.29;100914.72;5046866;28;20490;-85
2023/07/18 09:30:05;;;;;;;4.00;1.40;;;23.00;59.40;;;22.55;44.17;100915.31;5031491;28;20096;-85
2023/07/18 09:32:33;;;;;;;9.18;2.10;;;22.90;58.70;;;22.49;46.33;100919.94;5047200;28;20091;-85
2023/07/18 09:35:01;;;;;;;8.73;1.88;;;22.80;60.90;;;22.45;46.06;100918.91;5030333;28;20136;-86
2023/07/18 09:37:29;;;;;;;4.40;1.83;;;22.80;61.00;;;22.47;46.92;100919.44;5031752;28;20076;-85
2023/07/18 09:39:56;;;;;;;5.55;1.80;;;22.80;61.70;;;22.35;44.26;100917.03;5031421;28;20461;-85
2023/07/18 09:42:25;;;;;;;4.90;1.98;;;22.60;58.70;;;22.32;44.64;100922.22;5031626;28;20103;-85
2023/07/18 09:44:55;;;;;;;4.78;1.70;;;22.60;58.80;;;22.39;44.56;100924.63;5052888;28;20029;-84
2023/07/18 09:47:23;;;;;;;6.82;1.80;;;22.70;58.60;;;22.45;45.13;100926.22;5055447;28;20045;-85
2023/07/18 09:49:51;;;;;;;4.07;1.73;;;22.70;59.30;;;22.41;45.55;100927.91;5055390;28;20049;-85
2023/07/18 09:52:23;;;;;;;8.20;1.98;;;22.70;59.50;;;22.47;46.93;100922.16;5055563;28;20049;-85
2023/07/18 09:54:53;;;;;;;4.78;1.70;;;22.80;61.60;;;22.62;44.87;100929.41;5054303;28;20465;-85
2023/07/18 09:57:22;;;;;;;6.78;2.03;;;22.90;59.50;;;22.79;47.02;100929.03;5055393;28;20052;-84
2023/07/18 09:59:51;;;;;;;5.65;2.03;;;23.10;61.20;;;22.97;46.58;100927.59;5070572;28;20080;-85
2023/07/18 10:02:19;;;;;;;5.50;1.88;;;23.30;61.40;;;23.14;46.42;100925.28;5054009;28;20045;-85
2023/07/18 10:04:48;;;;;;;7.30;2.10;;;23.60;60.80;;;23.22;46.88;100918.41;5055094;28;20042;-85
2023/07/18 10:07:16;;;;;;;8.02;2.28;;;23.70;60.80;;;23.26;45.61;100919.47;5054910;28;20482;-85
2023/07/18 10:09:44;;;;;;;12.60;2.42;;;23.70;57.10;;;23.16;43.06;100927.72;5053575;28;20059;-85
2023/07/18 10:12:12;;;;;;;5.47;1.83;;;23.60;56.60;;;23.13;45.32;100916.31;5055092;28;20041;-85
2023/07/18 10:14:56;;;;;;;7.00;2.00;;;23.50;58.60;;;23.18;46.68;100910.03;5054860;28;20409;-85
2023/07/18 10:17:40;;;;;;;5.88;1.90;;;23.60;60.70;;;23.17;44.25;100907.56;5054972;28;20045;-85